Time;durP1;ratioP1;P1;durP2;ratioP2;P2;SDS_P1;SDS_P2;PMS_P1;PMS_P2;Temp;Humidity;BMP_temperature;BMP_pressure;BME280_temperature;BME280_humidity;BME280_pressure;Samples;Min_cycle;Max_cycle;Signal;HPM_P1;HPM_P2
2020/12/31 00:01:17;;;;;;;11.03;6.63;;;4.60;99.90;;;;;;5045130;28;20425;-73
2020/12/31 00:03:43;;;;;;;9.40;6.63;;;4.50;99.90;;;;;;5043908;28;20175;-73
2020/12/31 00:06:08;;;;;;;7.60;6.20;;;4.50;99.90;;;;;;5038441;28;20640;-73
2020/12/31 00:08:34;;;;;;;9.43;6.53;;;4.50;99.90;;;;;;5033244;28;20168;-73
2020/12/31 00:11:00;;;;;;;10.60;7.77;;;4.50;99.90;;;;;;5044582;28;20210;-73
2020/12/31 00:13:25;;;;;;;9.20;7.47;;;4.40;99.90;;;;;;5036829;28;20202;-73
2020/12/31 00:15:51;;;;;;;12.00;8.07;;;4.40;99.90;;;;;;5042973;28;20175;-73
2020/12/31 00:18:16;;;;;;;13.33;8.13;;;4.40;99.90;;;;;;5045522;28;20258;-72
2020/12/31 00:20:42;;;;;;;11.90;8.50;;;4.40;99.90;;;;;;5034958;28;20624;-73
2020/12/31 00:23:07;;;;;;;9.50;8.03;;;4.40;99.90;;;;;;5030992;28;20195;-73
2020/12/31 00:25:45;;;;;;;12.40;8.40;;;4.40;99.90;;;;;;5047980;28;20197;-73
2020/12/31 00:28:10;;;;;;;10.33;8.30;;;4.40;99.90;;;;;;5032275;28;20250;-73
2020/12/31 00:30:36;;;;;;;11.40;8.53;;;4.40;99.90;;;;;;5042952;28;20549;-73
2020/12/31 00:33:02;;;;;;;11.40;8.10;;;4.40;99.90;;;;;;5034521;28;20191;-73
2020/12/31 00:35:28;;;;;;;8.63;6.90;;;4.40;99.90;;;;;;5037648;28;20671;-73
2020/12/31 00:37:54;;;;;;;8.90;7.50;;;4.40;99.90;;;;;;5045632;28;20425;-73
2020/12/31 00:40:19;;;;;;;11.53;8.00;;;4.50;99.90;;;;;;5037665;28;20814;-73
2020/12/31 00:42:45;;;;;;;9.63;7.37;;;4.50;99.90;;;;;;5046988;28;20202;-73
2020/12/31 00:45:11;;;;;;;15.33;7.37;;;4.50;99.90;;;;;;5048731;28;20175;-73
2020/12/31 00:47:36;;;;;;;10.30;6.83;;;4.50;99.90;;;;;;5047910;28;20207;-73
2020/12/31 00:50:02;;;;;;;12.80;7.90;;;4.50;99.90;;;;;;5039572;28;20194;-73
2020/12/31 00:52:28;;;;;;;13.83;7.37;;;4.50;99.90;;;;;;5051486;28;20194;-74
2020/12/31 00:54:53;;;;;;;11.97;8.30;;;4.60;99.90;;;;;;5032039;28;20941;-73
2020/12/31 00:57:19;;;;;;;12.33;7.17;;;4.60;99.90;;;;;;5051282;28;20176;-72
2020/12/31 00:59:45;;;;;;;9.93;6.30;;;4.60;99.90;;;;;;5035558;28;20239;-73
2020/12/31 01:02:10;;;;;;;11.60;6.73;;;4.60;99.90;;;;;;5046039;28;20194;-74
2020/12/31 01:04:36;;;;;;;8.20;6.87;;;4.70;99.90;;;;;;5036708;28;20206;-72
2020/12/31 01:07:01;;;;;;;11.73;7.50;;;4.60;99.90;;;;;;5043960;28;20178;-73
2020/12/31 01:09:27;;;;;;;6.83;6.07;;;4.60;99.90;;;;;;5038729;28;20261;-74
2020/12/31 01:11:55;;;;;;;9.00;6.80;;;4.60;99.90;;;;;;5034396;28;20666;-73
2020/12/31 01:14:21;;;;;;;9.80;7.23;;;4.60;99.90;;;;;;5049524;28;20177;-73
2020/12/31 01:16:50;;;;;;;11.10;6.53;;;4.60;99.90;;;;;;5037164;28;20425;-73
2020/12/31 01:19:16;;;;;;;11.57;6.90;;;4.60;99.90;;;;;;5031881;28;20604;-73
2020/12/31 01:21:45;;;;;;;11.77;7.67;;;4.70;99.90;;;;;;5038693;28;20445;-73
2020/12/31 01:24:12;;;;;;;7.83;6.90;;;4.60;99.90;;;;;;5044320;28;20421;-74
2020/12/31 01:26:38;;;;;;;9.53;6.70;;;4.70;99.90;;;;;;5041851;28;20430;-72
2020/12/31 01:29:04;;;;;;;10.67;6.37;;;4.70;99.90;;;;;;5031600;28;20983;-73
2020/12/31 01:31:30;;;;;;;7.90;6.17;;;4.70;99.90;;;;;;5031530;28;20626;-73
2020/12/31 01:33:56;;;;;;;7.30;6.03;;;4.70;99.90;;;;;;5041396;28;20930;-73
2020/12/31 01:36:22;;;;;;;12.20;7.70;;;4.70;99.90;;;;;;5040850;28;20434;-73
2020/12/31 01:38:48;;;;;;;8.90;6.33;;;4.70;99.90;;;;;;5039214;28;20212;-73
2020/12/31 01:41:14;;;;;;;10.90;6.57;;;4.70;99.90;;;;;;5048845;28;20819;-74
2020/12/31 01:43:40;;;;;;;8.00;6.40;;;4.80;99.90;;;;;;5049368;28;20195;-73
2020/12/31 01:46:12;;;;;;;6.50;5.80;;;4.80;99.90;;;;;;5047370;28;20524;-73
2020/12/31 01:48:39;;;;;;;8.17;6.50;;;4.80;99.90;;;;;;5039330;28;20445;-73
2020/12/31 01:51:05;;;;;;;8.40;6.20;;;4.80;99.90;;;;;;5050084;28;20970;-73
2020/12/31 01:53:31;;;;;;;12.00;6.23;;;4.80;99.90;;;;;;5033600;28;20465;-73
2020/12/31 01:56:02;;;;;;;7.40;5.70;;;4.90;99.90;;;;;;5041682;28;20175;-74
2020/12/31 01:58:28;;;;;;;10.23;6.50;;;4.80;99.90;;;;;;5039658;28;20179;-74
2020/12/31 02:00:56;;;;;;;8.40;6.67;;;4.80;99.90;;;;;;5031032;28;20461;-73
2020/12/31 02:03:22;;;;;;;9.23;6.13;;;4.90;99.90;;;;;;5042056;28;20204;-73
2020/12/31 02:05:47;;;;;;;8.70;6.97;;;4.90;99.90;;;;;;5043743;28;20448;-73
2020/12/31 02:08:13;;;;;;;7.73;6.10;;;4.90;99.90;;;;;;5031832;28;20179;-74
2020/12/31 02:10:39;;;;;;;8.40;6.63;;;4.90;99.90;;;;;;5034128;28;20199;-73
2020/12/31 02:13:04;;;;;;;8.07;6.23;;;4.80;99.90;;;;;;5031277;28;20192;-73
2020/12/31 02:15:30;;;;;;;6.03;5.40;;;4.90;99.90;;;;;;5033666;28;20176;-73
2020/12/31 02:17:56;;;;;;;8.23;6.80;;;4.90;99.90;;;;;;5042419;28;20429;-73
2020/12/31 02:20:21;;;;;;;7.30;6.60;;;5.00;99.90;;;;;;5049293;28;20659;-72
2020/12/31 02:22:47;;;;;;;7.97;5.90;;;4.90;99.90;;;;;;5040439;28;20213;-73
2020/12/31 02:25:12;;;;;;;8.57;7.67;;;4.80;99.90;;;;;;5033523;28;20207;-73
2020/12/31 02:27:38;;;;;;;9.73;6.47;;;4.80;99.90;;;;;;5054651;28;20265;-74
2020/12/31 02:30:04;;;;;;;8.83;6.50;;;4.70;99.90;;;;;;5054196;28;20305;-73
2020/12/31 02:32:29;;;;;;;7.67;6.30;;;4.70;99.90;;;;;;5046917;28;20199;-73
2020/12/31 02:34:55;;;;;;;7.50;5.50;;;4.70;99.90;;;;;;5040502;28;20186;-73
2020/12/31 02:37:20;;;;;;;8.80;6.40;;;4.70;99.90;;;;;;5045789;28;20274;-73
2020/12/31 02:39:46;;;;;;;6.50;5.90;;;4.70;99.90;;;;;;5036206;28;20190;-73
2020/12/31 02:42:12;;;;;;;8.57;6.97;;;4.60;99.90;;;;;;5040936;28;20199;-73
2020/12/31 02:44:37;;;;;;;9.47;6.93;;;4.70;99.90;;;;;;5051990;28;20263;-72
2020/12/31 02:47:03;;;;;;;10.30;6.63;;;4.70;99.90;;;;;;5052097;28;20248;-73
2020/12/31 02:49:28;;;;;;;11.40;6.67;;;4.70;99.90;;;;;;5052224;28;20195;-74
2020/12/31 02:51:54;;;;;;;10.57;7.20;;;4.70;99.90;;;;;;5041469;28;20199;-73
2020/12/31 02:54:20;;;;;;;8.87;6.67;;;4.70;99.90;;;;;;5051536;28;20261;-73
2020/12/31 02:56:45;;;;;;;8.17;6.40;;;4.70;99.90;;;;;;5051205;28;20171;-73
2020/12/31 02:59:11;;;;;;;10.30;5.70;;;4.70;99.90;;;;;;5037212;28;20179;-73
2020/12/31 03:01:36;;;;;;;7.93;6.37;;;4.70;99.90;;;;;;5039680;28;20648;-73
2020/12/31 03:04:02;;;;;;;8.30;6.60;;;4.70;99.90;;;;;;5035760;28;20214;-73
2020/12/31 03:06:27;;;;;;;8.83;7.37;;;4.70;99.90;;;;;;5045314;28;20555;-73
2020/12/31 03:08:53;;;;;;;12.50;7.73;;;4.80;99.90;;;;;;5044714;28;20178;-73
2020/12/31 03:11:24;;;;;;;8.33;6.47;;;4.70;99.90;;;;;;5043054;28;20175;-73
2020/12/31 03:13:51;;;;;;;7.87;7.00;;;4.70;99.90;;;;;;5038323;28;20184;-73
2020/12/31 03:16:18;;;;;;;8.47;6.77;;;4.60;99.90;;;;;;5035178;28;20524;-73
2020/12/31 03:18:44;;;;;;;7.70;6.73;;;4.60;99.90;;;;;;5044079;28;20422;-73
2020/12/31 03:21:09;;;;;;;9.13;6.67;;;4.60;99.90;;;;;;5045276;28;20527;-73
2020/12/31 03:23:36;;;;;;;9.77;6.70;;;4.60;99.90;;;;;;5048390;28;20698;-74
2020/12/31 03:26:01;;;;;;;8.37;6.43;;;4.60;99.90;;;;;;5033260;28;20442;-73
2020/12/31 03:28:27;;;;;;;8.87;7.00;;;4.60;99.90;;;;;;5033260;28;20426;-73
2020/12/31 03:30:53;;;;;;;10.03;7.50;;;4.70;99.90;;;;;;5047349;28;20206;-73
2020/12/31 03:33:18;;;;;;;13.47;6.70;;;4.60;99.90;;;;;;5031895;28;20191;-73
2020/12/31 03:35:47;;;;;;;9.07;6.63;;;4.60;99.90;;;;;;5034167;28;20179;-73
2020/12/31 03:38:14;;;;;;;11.07;7.87;;;4.60;99.90;;;;;;5046709;28;20605;-73
2020/12/31 03:40:40;;;;;;;12.80;9.27;;;4.60;99.90;;;;;;5037111;28;20524;-70
2020/12/31 03:43:06;;;;;;;10.40;7.80;;;4.60;99.90;;;;;;5047700;28;20497;-71
2020/12/31 03:45:32;;;;;;;10.30;8.00;;;4.70;99.90;;;;;;5036613;28;20430;-73
2020/12/31 03:47:59;;;;;;;11.77;8.30;;;4.70;99.90;;;;;;5039025;28;20441;-71
2020/12/31 03:50:25;;;;;;;11.90;8.23;;;4.70;99.90;;;;;;5046741;28;20485;-72
2020/12/31 03:52:50;;;;;;;10.40;7.80;;;4.70;99.90;;;;;;5032777;28;20883;-72
2020/12/31 03:55:17;;;;;;;9.43;7.30;;;4.70;99.90;;;;;;5046844;28;20183;-71
2020/12/31 03:57:43;;;;;;;9.67;8.00;;;4.70;99.90;;;;;;5035579;28;20193;-72
2020/12/31 04:00:09;;;;;;;9.87;7.20;;;4.70;99.90;;;;;;5032615;28;20521;-72
2020/12/31 04:02:35;;;;;;;10.13;7.27;;;4.70;99.90;;;;;;5031227;28;20490;-71
2020/12/31 04:05:00;;;;;;;11.23;7.60;;;4.70;99.90;;;;;;5044221;28;20472;-71
2020/12/31 04:07:26;;;;;;;10.83;7.50;;;4.70;99.90;;;;;;5041518;28;20186;-74
2020/12/31 04:09:52;;;;;;;13.63;8.60;;;4.70;99.90;;;;;;5050877;28;20210;-71
2020/12/31 04:12:18;;;;;;;10.37;7.60;;;4.70;99.90;;;;;;5050849;28;20261;-71
2020/12/31 04:14:44;;;;;;;12.30;8.13;;;4.70;99.90;;;;;;5042361;28;20205;-72
2020/12/31 04:17:11;;;;;;;10.37;7.90;;;4.80;99.90;;;;;;5039398;28;21203;-71
2020/12/31 04:19:40;;;;;;;10.10;8.03;;;4.70;99.90;;;;;;5034278;28;20907;-71
2020/12/31 04:22:06;;;;;;;13.50;8.63;;;4.70;99.90;;;;;;5052074;28;20961;-71
2020/12/31 04:24:31;;;;;;;11.87;7.97;;;4.70;99.90;;;;;;5046541;28;20783;-71
2020/12/31 04:26:57;;;;;;;11.23;8.80;;;4.60;99.90;;;;;;5044634;28;20433;-71
2020/12/31 04:29:22;;;;;;;9.60;8.20;;;4.60;99.90;;;;;;5032896;28;20658;-71
2020/12/31 04:31:48;;;;;;;11.77;7.70;;;4.60;99.90;;;;;;5031483;28;20207;-72
2020/12/31 04:34:14;;;;;;;11.70;7.70;;;4.50;99.90;;;;;;5032461;28;20178;-72
2020/12/31 04:36:39;;;;;;;10.97;8.00;;;4.50;99.90;;;;;;5035878;28;20179;-73
2020/12/31 04:39:05;;;;;;;11.83;6.53;;;4.50;99.90;;;;;;5032001;28;20216;-74
2020/12/31 04:41:31;;;;;;;8.20;6.57;;;4.50;99.90;;;;;;5032065;28;20257;-71
2020/12/31 04:43:57;;;;;;;10.30;7.10;;;4.50;99.90;;;;;;5048623;28;20517;-72
2020/12/31 04:46:23;;;;;;;12.30;8.43;;;4.50;99.90;;;;;;5033887;28;20430;-72
2020/12/31 04:49:11;;;;;;;8.67;6.57;;;4.50;99.90;;;;;;5031356;28;21012;-71
2020/12/31 04:51:37;;;;;;;8.87;7.10;;;4.50;99.90;;;;;;5040315;28;20433;-72
2020/12/31 04:54:08;;;;;;;10.03;6.27;;;4.50;99.90;;;;;;5037702;28;20434;-71
2020/12/31 04:56:35;;;;;;;10.20;7.13;;;4.40;99.90;;;;;;5041578;28;20437;-71
2020/12/31 04:59:01;;;;;;;7.93;6.27;;;4.40;99.90;;;;;;5034314;28;20512;-71
2020/12/31 05:01:26;;;;;;;8.73;6.90;;;4.50;99.90;;;;;;5031936;28;20485;-72
2020/12/31 05:03:52;;;;;;;13.23;6.80;;;4.50;99.90;;;;;;5031515;28;20454;-71
2020/12/31 05:06:20;;;;;;;9.63;6.80;;;4.40;99.90;;;;;;5038017;28;20170;-71
2020/12/31 05:08:46;;;;;;;8.67;6.60;;;4.40;99.90;;;;;;5032420;28;20245;-71
2020/12/31 05:11:12;;;;;;;6.20;5.60;;;4.40;99.90;;;;;;5034807;28;20493;-71
2020/12/31 05:13:46;;;;;;;6.93;4.43;;;4.40;99.90;;;;;;5037924;28;20203;-71
2020/12/31 05:16:12;;;;;;;11.30;6.13;;;4.40;99.90;;;;;;5038628;28;20440;-71
2020/12/31 05:18:38;;;;;;;6.13;4.40;;;4.40;99.90;;;;;;5050635;28;20421;-71
2020/12/31 05:21:15;;;;;;;7.87;4.77;;;4.30;99.90;;;;;;5043631;28;20426;-71
2020/12/31 05:23:44;;;;;;;4.63;3.97;;;4.40;99.90;;;;;;5031832;28;20450;-71
2020/12/31 05:26:10;;;;;;;5.70;4.30;;;4.40;99.90;;;;;;5032320;28;20426;-71
2020/12/31 05:28:37;;;;;;;5.30;4.13;;;4.30;99.90;;;;;;5034177;28;21303;-72
2020/12/31 05:31:02;;;;;;;4.90;3.50;;;4.20;99.90;;;;;;5043615;28;20485;-71
2020/12/31 05:33:34;;;;;;;5.10;3.70;;;4.20;99.90;;;;;;5051039;28;20433;-71
2020/12/31 05:36:20;;;;;;;5.50;4.60;;;4.20;99.90;;;;;;5046186;28;20278;-71
2020/12/31 05:39:00;;;;;;;4.00;3.30;;;4.10;99.90;;;;;;5032425;28;20508;-71
2020/12/31 05:41:38;;;;;;;4.17;3.30;;;4.10;99.90;;;;;;5030539;28;20842;-71
2020/12/31 05:44:06;;;;;;;5.00;3.93;;;4.10;99.90;;;;;;5032535;28;20436;-71
2020/12/31 05:46:36;;;;;;;4.87;3.90;;;4.10;99.90;;;;;;5050897;28;20483;-71
2020/12/31 05:49:02;;;;;;;6.30;4.80;;;4.10;99.90;;;;;;5043710;28;20441;-71
2020/12/31 05:51:32;;;;;;;6.10;4.50;;;4.10;99.90;;;;;;5044678;28;20432;-71
2020/12/31 05:54:16;;;;;;;5.10;4.30;;;4.00;99.90;;;;;;5048761;28;20441;-71
2020/12/31 05:56:43;;;;;;;7.30;4.00;;;4.10;99.90;;;;;;5049639;28;20428;-71
2020/12/31 05:59:23;;;;;;;4.00;3.43;;;4.10;99.90;;;;;;5038969;28;20935;-71
2020/12/31 06:02:03;;;;;;;4.10;3.00;;;4.10;99.90;;;;;;5036932;28;20994;-71
2020/12/31 06:04:31;;;;;;;5.10;3.97;;;4.10;99.90;;;;;;5045845;28;20487;-71
2020/12/31 06:07:02;;;;;;;6.13;4.57;;;4.10;99.90;;;;;;5044973;28;20487;-71
2020/12/31 06:09:30;;;;;;;5.60;4.50;;;4.00;99.90;;;;;;5052620;28;20445;-71
2020/12/31 06:12:01;;;;;;;6.00;5.50;;;4.00;99.90;;;;;;5052032;28;20478;-71
2020/12/31 06:14:28;;;;;;;6.03;5.20;;;4.00;99.90;;;;;;5040408;28;20434;-71
2020/12/31 06:16:59;;;;;;;5.20;4.20;;;4.00;99.90;;;;;;5041212;28;20430;-71
2020/12/31 06:19:29;;;;;;;8.50;4.37;;;4.00;99.90;;;;;;5037358;28;20437;-71
2020/12/31 06:21:59;;;;;;;5.13;4.10;;;4.00;99.90;;;;;;5052340;28;20457;-72
2020/12/31 06:24:55;;;;;;;4.27;3.87;;;4.00;99.90;;;;;;5039700;28;20438;-71
2020/12/31 06:27:38;;;;;;;3.87;3.33;;;3.90;99.90;;;;;;5035241;28;20925;-71
2020/12/31 06:30:04;;;;;;;3.00;2.80;;;4.00;99.90;;;;;;5041849;28;20541;-72
2020/12/31 06:32:38;;;;;;;4.30;3.67;;;3.90;99.90;;;;;;5048803;28;21030;-72
2020/12/31 06:35:05;;;;;;;2.97;2.70;;;3.90;99.90;;;;;;5041597;28;20175;-72
2020/12/31 06:37:31;;;;;;;3.53;3.23;;;3.80;99.90;;;;;;5043878;28;20458;-71
2020/12/31 06:40:29;;;;;;;4.97;2.80;;;3.80;99.90;;;;;;5054121;28;20508;-71
2020/12/31 06:43:11;;;;;;;4.47;2.77;;;3.80;99.90;;;;;;5041153;28;20322;-71
2020/12/31 06:45:41;;;;;;;3.90;2.30;;;3.70;99.90;;;;;;5042686;28;20510;-71
2020/12/31 06:48:27;;;;;;;5.00;2.67;;;3.70;99.90;;;;;;5035616;28;20512;-71
2020/12/31 06:51:11;;;;;;;3.30;3.00;;;3.70;99.90;;;;;;5050618;28;20507;-72
2020/12/31 06:53:46;;;;;;;3.10;2.77;;;3.70;99.90;;;;;;5046383;28;20552;-71
2020/12/31 06:56:13;;;;;;;4.40;3.77;;;3.60;99.90;;;;;;5042746;28;20432;-71
2020/12/31 06:58:40;;;;;;;3.90;3.50;;;3.60;99.90;;;;;;5039103;28;20418;-71
2020/12/31 07:01:26;;;;;;;5.20;3.23;;;3.60;99.90;;;;;;5040103;28;20520;-71
2020/12/31 07:03:53;;;;;;;3.83;3.30;;;3.60;99.90;;;;;;5035160;28;20478;-71
2020/12/31 07:06:31;;;;;;;5.17;3.80;;;3.40;99.90;;;;;;5033889;28;20421;-71
2020/12/31 07:09:24;;;;;;;5.80;3.63;;;3.50;99.90;;;;;;5038131;28;20429;-70
2020/12/31 07:11:57;;;;;;;6.10;4.80;;;3.50;99.90;;;;;;5039824;28;20494;-71
2020/12/31 07:14:25;;;;;;;6.70;5.30;;;3.50;99.90;;;;;;5045470;28;20426;-71
2020/12/31 07:17:07;;;;;;;8.03;6.07;;;3.40;99.90;;;;;;5044627;28;20438;-71
2020/12/31 07:19:38;;;;;;;9.60;6.10;;;3.30;99.90;;;;;;5033408;28;20445;-71
2020/12/31 07:22:22;;;;;;;8.83;6.70;;;3.30;99.90;;;;;;5040642;28;20879;-71
2020/12/31 07:24:49;;;;;;;9.60;7.10;;;3.20;99.90;;;;;;5034375;28;20545;-71
2020/12/31 07:27:27;;;;;;;6.20;5.07;;;3.20;99.90;;;;;;5034496;28;20429;-71
2020/12/31 07:30:08;;;;;;;9.37;6.37;;;3.20;99.90;;;;;;5050524;28;20798;-71
2020/12/31 07:33:04;;;;;;;8.83;6.73;;;3.20;99.90;;;;;;5052312;28;20448;-74
2020/12/31 07:35:33;;;;;;;7.57;5.63;;;3.10;99.90;;;;;;5039369;28;20431;-72
2020/12/31 07:38:08;;;;;;;10.50;5.80;;;3.10;99.90;;;;;;5051935;28;20457;-71
2020/12/31 07:40:53;;;;;;;8.17;6.30;;;3.10;99.90;;;;;;5044056;28;20739;-71
2020/12/31 07:43:24;;;;;;;7.50;5.93;;;3.10;99.90;;;;;;5038481;28;20852;-70
2020/12/31 07:45:55;;;;;;;8.20;7.00;;;3.10;99.90;;;;;;5049145;28;20441;-71
2020/12/31 07:48:22;;;;;;;8.03;5.87;;;3.10;99.90;;;;;;5047734;28;20429;-71
2020/12/31 07:50:58;;;;;;;8.30;6.20;;;3.10;99.90;;;;;;5052493;28;20453;-72
2020/12/31 07:53:25;;;;;;;10.10;6.53;;;3.20;99.90;;;;;;5042294;28;20473;-72
2020/12/31 07:55:53;;;;;;;8.37;6.00;;;3.10;99.90;;;;;;5033910;28;20532;-71
2020/12/31 07:58:20;;;;;;;8.30;7.30;;;3.10;99.90;;;;;;5031097;28;20556;-71
2020/12/31 08:01:06;;;;;;;10.47;7.17;;;3.10;99.90;;;;;;5042364;28;20456;-71
2020/12/31 08:03:32;;;;;;;9.63;6.87;;;3.20;99.90;;;;;;5038994;28;20457;-71
2020/12/31 08:05:59;;;;;;;13.53;7.50;;;3.20;99.90;;;;;;5031985;28;20430;-71
2020/12/31 08:08:26;;;;;;;9.63;7.47;;;3.20;99.90;;;;;;5051894;28;20433;-71
2020/12/31 08:10:52;;;;;;;11.00;7.90;;;3.20;99.90;;;;;;5042731;28;20446;-71
2020/12/31 08:13:18;;;;;;;9.70;7.83;;;3.20;99.90;;;;;;5048791;28;20869;-71
2020/12/31 08:15:50;;;;;;;9.27;7.40;;;3.20;99.90;;;;;;5040398;28;20175;-71
2020/12/31 08:18:16;;;;;;;11.10;8.87;;;3.30;99.90;;;;;;5045712;28;20439;-71
2020/12/31 08:20:43;;;;;;;11.90;9.07;;;3.20;99.90;;;;;;5032577;28;20414;-73
2020/12/31 08:23:17;;;;;;;10.37;7.83;;;3.20;99.90;;;;;;5032264;28;20500;-74
2020/12/31 08:25:44;;;;;;;10.70;7.83;;;3.20;99.90;;;;;;5043504;28;20421;-73
2020/12/31 08:28:09;;;;;;;12.30;8.37;;;3.20;99.90;;;;;;5048572;28;20594;-73
2020/12/31 08:30:37;;;;;;;15.00;9.00;;;3.20;99.90;;;;;;5050199;28;20556;-74
2020/12/31 08:33:04;;;;;;;9.23;7.20;;;3.20;99.90;;;;;;5044432;28;20191;-74
2020/12/31 08:35:30;;;;;;;11.27;9.00;;;3.20;99.90;;;;;;5041411;28;20424;-74
2020/12/31 08:38:11;;;;;;;11.27;8.37;;;3.20;99.90;;;;;;5040994;28;20461;-74
2020/12/31 08:40:49;;;;;;;14.87;10.60;;;3.30;99.90;;;;;;5048659;28;20489;-74
2020/12/31 08:43:30;;;;;;;10.90;8.30;;;3.30;99.90;;;;;;5050259;28;20815;-73
2020/12/31 08:45:59;;;;;;;10.73;8.47;;;3.30;99.90;;;;;;5042481;28;20464;-74
2020/12/31 08:48:32;;;;;;;11.73;8.53;;;3.30;99.90;;;;;;5036915;28;20441;-73
2020/12/31 08:50:58;;;;;;;14.57;8.47;;;3.30;99.90;;;;;;5050621;28;20457;-74
2020/12/31 08:53:26;;;;;;;10.97;8.13;;;3.30;99.90;;;;;;5044841;28;20485;-73
2020/12/31 08:55:51;;;;;;;13.23;10.13;;;3.40;99.90;;;;;;5034829;28;20440;-74
2020/12/31 08:58:18;;;;;;;11.70;9.13;;;3.40;99.90;;;;;;5032755;28;20457;-74
2020/12/31 09:00:44;;;;;;;10.73;8.80;;;3.40;99.90;;;;;;5030614;28;20446;-74
2020/12/31 09:03:11;;;;;;;10.70;8.60;;;3.40;99.90;;;;;;5045110;28;20489;-71
2020/12/31 09:05:37;;;;;;;15.47;10.07;;;3.40;99.90;;;;;;5044690;28;20422;-72
2020/12/31 09:08:07;;;;;;;11.70;8.80;;;3.40;99.90;;;;;;5036216;28;20437;-71
2020/12/31 09:10:35;;;;;;;12.57;8.70;;;3.40;99.90;;;;;;5035280;28;20493;-71
2020/12/31 09:13:02;;;;;;;13.10;9.30;;;3.40;99.90;;;;;;5033671;28;20532;-72
2020/12/31 09:15:28;;;;;;;11.67;8.90;;;3.40;99.90;;;;;;5032110;28;20517;-71
2020/12/31 09:17:54;;;;;;;11.47;9.17;;;3.40;99.90;;;;;;5034648;28;20432;-72
2020/12/31 09:20:38;;;;;;;15.47;8.40;;;3.50;99.90;;;;;;5031675;28;20517;-72
2020/12/31 09:23:09;;;;;;;12.47;7.90;;;3.50;99.90;;;;;;5032279;28;20446;-72
2020/12/31 09:25:46;;;;;;;14.57;8.80;;;3.50;99.90;;;;;;5040784;28;20425;-74
2020/12/31 09:28:12;;;;;;;12.53;8.73;;;3.50;99.90;;;;;;5035189;28;20429;-74
2020/12/31 09:30:37;;;;;;;13.60;8.57;;;3.50;99.90;;;;;;5047665;28;20460;-73
2020/12/31 09:33:03;;;;;;;12.07;7.93;;;3.50;99.90;;;;;;5044334;28;20615;-74
2020/12/31 09:35:29;;;;;;;12.00;8.57;;;3.50;99.90;;;;;;5035590;28;20578;-74
2020/12/31 09:37:57;;;;;;;11.33;7.70;;;3.50;99.90;;;;;;5050786;28;20179;-73
2020/12/31 09:40:24;;;;;;;9.43;7.70;;;3.50;99.90;;;;;;5042070;28;20639;-74
2020/12/31 09:42:50;;;;;;;12.77;8.40;;;3.50;99.90;;;;;;5042238;28;20462;-73
2020/12/31 09:45:16;;;;;;;11.73;7.80;;;3.60;99.90;;;;;;5047433;28;20484;-73
2020/12/31 09:47:42;;;;;;;10.87;9.10;;;3.60;99.90;;;;;;5042702;28;20460;-74
2020/12/31 09:50:09;;;;;;;10.37;7.20;;;3.60;99.90;;;;;;5046201;28;20464;-73
2020/12/31 09:52:39;;;;;;;10.93;7.83;;;3.50;99.90;;;;;;5044182;28;20560;-75
2020/12/31 09:55:09;;;;;;;20.90;8.00;;;3.50;99.90;;;;;;5054633;28;20421;-73
2020/12/31 09:57:34;;;;;;;10.80;7.73;;;3.50;99.90;;;;;;5035147;28;20446;-74
2020/12/31 10:00:01;;;;;;;11.60;9.40;;;3.50;99.90;;;;;;5037114;28;20437;-73
2020/12/31 10:02:27;;;;;;;11.30;9.03;;;3.50;99.90;;;;;;5034511;28;20209;-73
2020/12/31 10:04:53;;;;;;;10.50;8.43;;;3.60;99.90;;;;;;5036596;28;20456;-73
2020/12/31 10:07:18;;;;;;;11.07;8.30;;;3.50;99.90;;;;;;5048797;28;20244;-73
2020/12/31 10:09:44;;;;;;;14.20;9.77;;;3.50;99.90;;;;;;5036370;28;20241;-73
2020/12/31 10:12:13;;;;;;;15.73;10.20;;;3.50;99.90;;;;;;5035966;28;20196;-73
2020/12/31 10:14:38;;;;;;;14.57;10.00;;;3.50;99.90;;;;;;5035581;28;20674;-73
2020/12/31 10:17:06;;;;;;;13.40;9.40;;;3.50;99.90;;;;;;5034792;28;20520;-74
2020/12/31 10:19:31;;;;;;;11.17;9.07;;;3.50;99.90;;;;;;5052520;28;20547;-74
2020/12/31 10:21:57;;;;;;;11.00;8.70;;;3.50;99.90;;;;;;5050180;28;20559;-74
2020/12/31 10:24:22;;;;;;;11.10;8.47;;;3.30;99.90;;;;;;5042073;28;20265;-73
2020/12/31 10:26:48;;;;;;;13.20;9.43;;;3.40;99.90;;;;;;5036139;28;20196;-73
2020/12/31 10:29:14;;;;;;;9.83;7.80;;;3.30;99.90;;;;;;5046708;28;20186;-73
2020/12/31 10:31:42;;;;;;;12.40;7.70;;;3.30;99.90;;;;;;5036381;28;20212;-73
2020/12/31 10:34:09;;;;;;;11.90;8.60;;;3.20;99.90;;;;;;5047531;28;20425;-73
2020/12/31 10:36:35;;;;;;;14.20;8.83;;;3.20;99.90;;;;;;5054141;28;20482;-73
2020/12/31 10:39:02;;;;;;;11.10;7.97;;;3.10;99.90;;;;;;5042063;28;20925;-73
2020/12/31 10:41:28;;;;;;;12.50;9.77;;;3.20;99.90;;;;;;5041705;28;20251;-74
2020/12/31 10:43:55;;;;;;;10.57;9.40;;;3.20;99.90;;;;;;5050250;28;20441;-73
2020/12/31 10:46:22;;;;;;;11.40;8.00;;;3.20;99.90;;;;;;5042563;28;20462;-73
2020/12/31 10:48:48;;;;;;;11.60;7.87;;;3.20;99.90;;;;;;5051352;28;20433;-73
2020/12/31 10:51:14;;;;;;;8.80;7.03;;;3.20;99.90;;;;;;5053896;28;20471;-74
2020/12/31 10:53:40;;;;;;;8.60;6.03;;;3.10;99.90;;;;;;5045554;28;20664;-72
2020/12/31 10:56:05;;;;;;;8.53;6.40;;;3.10;99.90;;;;;;5040826;28;20434;-71
2020/12/31 10:58:31;;;;;;;6.97;5.47;;;3.10;99.90;;;;;;5041449;28;20174;-70
2020/12/31 11:00:57;;;;;;;9.90;4.83;;;3.00;99.90;;;;;;5035069;28;20179;-70
2020/12/31 11:03:22;;;;;;;8.30;6.27;;;2.90;99.90;;;;;;5040103;28;20453;-70
2020/12/31 11:05:48;;;;;;;8.80;6.53;;;2.90;99.90;;;;;;5052408;28;20192;-72
2020/12/31 11:08:14;;;;;;;8.00;6.00;;;2.90;99.90;;;;;;5044970;28;20183;-72
2020/12/31 11:10:39;;;;;;;7.70;5.77;;;2.80;99.90;;;;;;5035007;28;20259;-70
2020/12/31 11:13:05;;;;;;;7.87;5.80;;;2.90;99.90;;;;;;5038413;28;20194;-70
2020/12/31 11:15:30;;;;;;;6.27;5.10;;;2.80;99.90;;;;;;5045233;28;20178;-70
2020/12/31 11:17:56;;;;;;;6.23;4.93;;;2.90;99.90;;;;;;5038086;28;20189;-70
2020/12/31 11:20:22;;;;;;;5.93;4.70;;;2.90;99.90;;;;;;5032530;28;20206;-70
2020/12/31 11:22:50;;;;;;;7.03;5.63;;;2.90;99.90;;;;;;5033439;28;20454;-71
2020/12/31 11:25:16;;;;;;;6.50;5.57;;;3.00;99.90;;;;;;5052727;28;20567;-71
2020/12/31 11:27:42;;;;;;;5.17;4.53;;;3.00;99.90;;;;;;5035403;28;20492;-71
2020/12/31 11:30:07;;;;;;;7.43;5.00;;;3.10;99.90;;;;;;5050442;28;20687;-71
2020/12/31 11:32:40;;;;;;;6.70;5.17;;;3.10;99.90;;;;;;5052471;28;20252;-72
2020/12/31 11:35:06;;;;;;;7.33;4.40;;;3.10;99.90;;;;;;5033473;28;20189;-71
2020/12/31 11:37:33;;;;;;;6.10;5.47;;;3.10;99.90;;;;;;5033903;28;20508;-71
2020/12/31 11:39:59;;;;;;;7.03;5.50;;;3.20;99.90;;;;;;5043758;28;20436;-71
2020/12/31 11:42:24;;;;;;;7.60;6.07;;;3.20;99.90;;;;;;5048941;28;20978;-71
2020/12/31 11:44:50;;;;;;;7.00;5.63;;;3.20;99.90;;;;;;5033801;28;20198;-73
2020/12/31 11:47:15;;;;;;;5.70;5.10;;;3.30;99.90;;;;;;5032975;28;20187;-74
2020/12/31 11:49:41;;;;;;;8.03;5.70;;;3.30;99.90;;;;;;5042321;28;20214;-73
2020/12/31 11:52:07;;;;;;;6.63;5.20;;;3.30;99.90;;;;;;5035840;28;20232;-72
2020/12/31 11:54:32;;;;;;;7.90;6.30;;;3.30;99.90;;;;;;5049744;28;20659;-73
2020/12/31 11:56:58;;;;;;;7.10;5.50;;;3.30;99.90;;;;;;5052614;28;20182;-73
2020/12/31 11:59:23;;;;;;;8.23;6.23;;;3.40;99.90;;;;;;5040518;28;20171;-73
2020/12/31 12:01:50;;;;;;;6.73;5.90;;;3.40;99.90;;;;;;5051737;28;20277;-73
2020/12/31 12:04:17;;;;;;;9.50;7.20;;;3.40;99.90;;;;;;5043308;28;20167;-74
2020/12/31 12:06:52;;;;;;;8.30;6.53;;;3.40;99.90;;;;;;5032646;28;20433;-74
2020/12/31 12:09:18;;;;;;;6.20;5.40;;;3.50;99.90;;;;;;5042444;28;20452;-73
2020/12/31 12:11:45;;;;;;;8.27;5.90;;;3.40;99.90;;;;;;5036670;28;20463;-73
2020/12/31 12:14:10;;;;;;;6.77;6.07;;;3.60;99.90;;;;;;5041008;28;20872;-73
2020/12/31 12:16:36;;;;;;;8.13;5.80;;;3.60;99.90;;;;;;5049165;28;20526;-73
2020/12/31 12:19:02;;;;;;;7.57;5.97;;;3.70;99.90;;;;;;5041822;28;20528;-73
2020/12/31 12:21:27;;;;;;;8.00;5.90;;;3.80;99.90;;;;;;5046655;28;20513;-73
2020/12/31 12:23:53;;;;;;;7.43;5.67;;;3.90;99.90;;;;;;5043916;28;20228;-70
2020/12/31 12:26:19;;;;;;;9.27;5.73;;;3.90;99.90;;;;;;5032885;28;20233;-71
2020/12/31 12:28:44;;;;;;;8.87;5.10;;;3.90;99.90;;;;;;5044841;28;20208;-73
2020/12/31 12:31:10;;;;;;;5.93;5.33;;;4.00;99.90;;;;;;5032079;28;20294;-73
2020/12/31 12:33:36;;;;;;;7.93;5.50;;;4.00;99.90;;;;;;5042947;28;20195;-73
2020/12/31 12:36:02;;;;;;;7.07;5.67;;;4.10;99.90;;;;;;5048875;28;20198;-72
2020/12/31 12:38:27;;;;;;;5.87;4.93;;;4.20;99.90;;;;;;5043663;28;20172;-73
2020/12/31 12:40:53;;;;;;;5.60;5.07;;;4.20;99.90;;;;;;5037371;28;20453;-73
2020/12/31 12:43:18;;;;;;;7.10;6.33;;;4.20;99.90;;;;;;5041073;28;20194;-73
2020/12/31 12:45:44;;;;;;;7.93;4.80;;;4.20;99.90;;;;;;5052079;28;20182;-73
2020/12/31 12:48:10;;;;;;;5.13;4.60;;;4.20;99.90;;;;;;5051872;28;20187;-72
2020/12/31 12:50:35;;;;;;;5.60;5.10;;;4.20;99.90;;;;;;5040566;28;20206;-73
2020/12/31 12:53:01;;;;;;;18.10;11.07;;;4.20;99.90;;;;;;5036541;28;20197;-73
2020/12/31 12:55:26;;;;;;;7.20;6.50;;;4.30;99.90;;;;;;5046643;28;20225;-73
2020/12/31 12:57:52;;;;;;;5.73;4.73;;;4.30;99.90;;;;;;5035376;28;20221;-73